Time;durP1;ratioP1;P1;durP2;ratioP2;P2;SDS_P1;SDS_P2;PMS_P1;PMS_P2;Temp;Humidity;BMP_temperature;BMP_pressure;BME280_temperature;BME280_humidity;BME280_pressure;Samples;Min_cycle;Max_cycle;Signal;HPM_P1;HPM_P2
2023/03/01 00:02:10;;;;;;;9.18;8.75;;;;;;;;;;5013688;28;20029;-66
2023/03/01 00:04:35;;;;;;;9.40;8.90;;;;;;;;;;5012669;28;20034;-66
2023/03/01 00:07:01;;;;;;;8.98;8.55;;;;;;;;;;5014112;28;20515;-66
2023/03/01 00:09:26;;;;;;;9.38;8.88;;;;;;;;;;5014143;28;20044;-66
2023/03/01 00:11:51;;;;;;;9.32;8.82;;;;;;;;;;5013914;28;20025;-66
2023/03/01 00:14:17;;;;;;;9.48;8.98;;;;;;;;;;5013341;28;20026;-66
2023/03/01 00:16:43;;;;;;;9.75;9.25;;;;;;;;;;5013918;28;20026;-67
2023/03/01 00:19:12;;;;;;;9.73;9.23;;;;;;;;;;5013995;28;20026;-67
2023/03/01 00:21:38;;;;;;;9.43;8.93;;;;;;;;;;5007395;28;20018;-66
2023/03/01 00:24:03;;;;;;;9.30;8.80;;;;;;;;;;4995855;28;20508;-66
2023/03/01 00:26:29;;;;;;;8.73;8.32;;;;;;;;;;5014093;28;20057;-66
2023/03/01 00:28:56;;;;;;;8.90;8.50;;;;;;;;;;4993021;28;20053;-67
2023/03/01 00:31:23;;;;;;;8.77;8.38;;;;;;;;;;5013532;28;20037;-66
2023/03/01 00:33:51;;;;;;;8.93;8.52;;;;;;;;;;5013395;28;20030;-66
2023/03/01 00:36:17;;;;;;;9.73;9.23;;;;;;;;;;5012870;28;20481;-67
2023/03/01 00:38:44;;;;;;;9.15;8.68;;;;;;;;;;5013598;28;20026;-67
2023/03/01 00:41:10;;;;;;;8.80;8.40;;;;;;;;;;5013662;28;20056;-66
2023/03/01 00:43:36;;;;;;;9.57;9.07;;;;;;;;;;5006673;28;20029;-67
2023/03/01 00:46:09;;;;;;;9.55;9.05;;;;;;;;;;5012652;28;20495;-66
2023/03/01 00:48:34;;;;;;;9.23;8.73;;;;;;;;;;5001713;28;20057;-66
2023/03/01 00:51:07;;;;;;;8.60;8.20;;;;;;;;;;5013473;28;20060;-67
2023/03/01 00:53:32;;;;;;;9.10;8.68;;;;;;;;;;5011746;28;20412;-67
2023/03/01 00:55:58;;;;;;;9.60;9.10;;;;;;;;;;5013232;28;20026;-66
2023/03/01 00:58:23;;;;;;;9.65;9.15;;;;;;;;;;5012708;28;20452;-67
2023/03/01 01:00:49;;;;;;;8.85;8.45;;;;;;;;;;5013226;28;20392;-66
2023/03/01 01:03:14;;;;;;;8.93;8.52;;;;;;;;;;5012720;28;20022;-67
2023/03/01 01:05:39;;;;;;;8.98;8.57;;;;;;;;;;5012226;28;20454;-66
2023/03/01 01:08:05;;;;;;;9.00;8.60;;;;;;;;;;5012831;28;20060;-65
2023/03/01 01:10:33;;;;;;;9.60;9.10;;;;;;;;;;5014915;28;20023;-67
2023/03/01 01:12:58;;;;;;;8.93;8.52;;;;;;;;;;4995386;28;20084;-67
2023/03/01 01:15:24;;;;;;;8.95;8.55;;;;;;;;;;5013052;28;20030;-67
2023/03/01 01:17:49;;;;;;;8.95;8.55;;;;;;;;;;5013527;28;20025;-66
2023/03/01 01:20:14;;;;;;;9.10;8.60;;;;;;;;;;5012476;28;20030;-66
2023/03/01 01:22:40;;;;;;;9.85;9.35;;;;;;;;;;5012595;28;20526;-66
2023/03/01 01:25:05;;;;;;;9.05;8.63;;;;;;;;;;5012212;28;20052;-65
2023/03/01 01:27:30;;;;;;;9.65;9.15;;;;;;;;;;5011830;28;20061;-66
2023/03/01 01:29:56;;;;;;;9.10;8.70;;;;;;;;;;5014604;28;20009;-66
2023/03/01 01:32:21;;;;;;;9.80;9.30;;;;;;;;;;5013160;28;20024;-66
2023/03/01 01:34:46;;;;;;;9.40;8.90;;;;;;;;;;5012245;28;20018;-67
2023/03/01 01:37:12;;;;;;;9.00;8.60;;;;;;;;;;5012683;28;20499;-67
2023/03/01 01:39:37;;;;;;;9.45;8.95;;;;;;;;;;5005771;28;20085;-67
2023/03/01 01:42:02;;;;;;;9.38;8.88;;;;;;;;;;5006159;28;20045;-66
2023/03/01 01:44:29;;;;;;;9.45;8.95;;;;;;;;;;4996123;28;20034;-67
2023/03/01 01:47:05;;;;;;;9.38;8.88;;;;;;;;;;5019207;28;20022;-67
2023/03/01 01:49:33;;;;;;;9.98;9.48;;;;;;;;;;5014552;28;20018;-67
2023/03/01 01:52:01;;;;;;;8.85;8.45;;;;;;;;;;5014458;28;20024;-67
2023/03/01 01:54:47;;;;;;;9.52;9.02;;;;;;;;;;5013439;28;20109;-67
2023/03/01 01:57:14;;;;;;;9.43;8.93;;;;;;;;;;4995195;28;20026;-67
2023/03/01 01:59:43;;;;;;;9.93;9.43;;;;;;;;;;4994759;28;20480;-66
2023/03/01 02:02:08;;;;;;;9.10;8.70;;;;;;;;;;5014103;28;20053;-67
2023/03/01 02:04:33;;;;;;;9.85;9.35;;;;;;;;;;4998155;28;20037;-67
2023/03/01 02:07:04;;;;;;;9.82;9.32;;;;;;;;;;5014569;28;20018;-67
2023/03/01 02:09:30;;;;;;;9.82;9.32;;;;;;;;;;5020198;28;20014;-67
2023/03/01 02:11:55;;;;;;;9.18;8.77;;;;;;;;;;5012531;28;20449;-67
2023/03/01 02:14:21;;;;;;;9.52;9.02;;;;;;;;;;5011817;28;20032;-67
2023/03/01 02:16:46;;;;;;;9.43;8.93;;;;;;;;;;5008231;28;20481;-67
2023/03/01 02:19:15;;;;;;;9.80;9.30;;;;;;;;;;5011691;28;20061;-67
2023/03/01 02:21:43;;;;;;;9.65;9.15;;;;;;;;;;5011781;28;20022;-67
2023/03/01 02:24:15;;;;;;;9.60;9.10;;;;;;;;;;5011634;28;20452;-67
2023/03/01 02:26:40;;;;;;;9.75;9.25;;;;;;;;;;5011797;28;20116;-66
2023/03/01 02:29:05;;;;;;;9.70;9.20;;;;;;;;;;5012013;28;20441;-67
2023/03/01 02:31:44;;;;;;;10.95;10.27;;;;;;;;;;5009480;28;20409;-66
2023/03/01 02:34:15;;;;;;;8.95;8.55;;;;;;;;;;5002231;28;20014;-66
2023/03/01 02:36:52;;;;;;;9.93;9.43;;;;;;;;;;5011561;28;20543;-66
2023/03/01 02:39:19;;;;;;;9.65;9.15;;;;;;;;;;5011747;28;20040;-66
2023/03/01 02:41:49;;;;;;;9.15;8.75;;;;;;;;;;4993775;28;20025;-66
2023/03/01 02:44:15;;;;;;;9.82;9.32;;;;;;;;;;5011538;28;20021;-66
2023/03/01 02:46:48;;;;;;;10.27;9.70;;;;;;;;;;5011924;28;20358;-67
2023/03/01 02:49:21;;;;;;;9.00;8.60;;;;;;;;;;5010640;28;20024;-65
2023/03/01 02:52:05;;;;;;;9.23;8.73;;;;;;;;;;5011267;28;20667;-67
2023/03/01 02:54:39;;;;;;;9.80;9.30;;;;;;;;;;5005095;28;20054;-65
2023/03/01 02:57:05;;;;;;;9.50;9.00;;;;;;;;;;4984813;28;20437;-65
2023/03/01 02:59:38;;;;;;;9.57;9.07;;;;;;;;;;5012157;28;20026;-66
2023/03/01 03:02:04;;;;;;;9.35;8.85;;;;;;;;;;5011484;28;20030;-66
2023/03/01 03:04:29;;;;;;;9.90;9.40;;;;;;;;;;5011948;28;20461;-66
2023/03/01 03:06:54;;;;;;;11.18;10.48;;;;;;;;;;5008640;28;20021;-65
2023/03/01 03:09:20;;;;;;;10.23;9.63;;;;;;;;;;5003041;28;20412;-66
2023/03/01 03:11:46;;;;;;;9.75;9.25;;;;;;;;;;5006556;28;20101;-66
2023/03/01 03:14:12;;;;;;;9.55;9.05;;;;;;;;;;5011169;28;20037;-66
2023/03/01 03:16:50;;;;;;;9.50;9.00;;;;;;;;;;5011421;28;20048;-67
2023/03/01 03:19:16;;;;;;;8.60;8.20;;;;;;;;;;5010778;28;20033;-67
2023/03/01 03:21:43;;;;;;;9.35;8.85;;;;;;;;;;5011670;28;20388;-66
2023/03/01 03:24:08;;;;;;;9.32;8.82;;;;;;;;;;5002652;28;20089;-67
2023/03/01 03:26:34;;;;;;;10.23;9.63;;;;;;;;;;5012505;28;20053;-66
2023/03/01 03:29:01;;;;;;;9.60;9.10;;;;;;;;;;5014639;28;20033;-66
2023/03/01 03:31:26;;;;;;;9.10;8.70;;;;;;;;;;4997035;28;20030;-66
2023/03/01 03:33:52;;;;;;;8.90;8.50;;;;;;;;;;5015275;28;20025;-66
2023/03/01 03:36:18;;;;;;;8.57;8.18;;;;;;;;;;5014923;28;20073;-66
2023/03/01 03:38:45;;;;;;;9.75;9.25;;;;;;;;;;5013184;28;20480;-66
2023/03/01 03:41:11;;;;;;;9.90;9.40;;;;;;;;;;4996598;28;20033;-65
2023/03/01 03:43:37;;;;;;;9.75;9.25;;;;;;;;;;5014634;28;20022;-67
2023/03/01 03:46:05;;;;;;;8.90;8.50;;;;;;;;;;5014746;28;20033;-66
2023/03/01 03:48:35;;;;;;;9.13;8.73;;;;;;;;;;5014441;28;20569;-66
2023/03/01 03:51:01;;;;;;;9.70;9.20;;;;;;;;;;5014823;28;20053;-66
2023/03/01 03:53:27;;;;;;;9.43;8.93;;;;;;;;;;5012257;28;20512;-67
2023/03/01 03:55:52;;;;;;;9.75;9.25;;;;;;;;;;5024908;28;20053;-66
2023/03/01 03:58:19;;;;;;;8.90;8.50;;;;;;;;;;5011264;28;20452;-66
2023/03/01 04:00:45;;;;;;;9.57;9.07;;;;;;;;;;5013282;28;20025;-65
2023/03/01 04:03:11;;;;;;;10.27;9.70;;;;;;;;;;5013964;28;20392;-66
2023/03/01 04:05:37;;;;;;;10.50;9.90;;;;;;;;;;4991498;28;20025;-67
2023/03/01 04:08:03;;;;;;;10.45;9.85;;;;;;;;;;5008851;28;20026;-67
2023/03/01 04:10:30;;;;;;;9.70;9.20;;;;;;;;;;5013862;28;20151;-67
2023/03/01 04:12:58;;;;;;;9.68;9.18;;;;;;;;;;5014386;28;20366;-67
2023/03/01 04:15:24;;;;;;;10.02;9.52;;;;;;;;;;5013713;28;20030;-67
2023/03/01 04:17:50;;;;;;;9.85;9.35;;;;;;;;;;5013952;28;20037;-67
2023/03/01 04:20:17;;;;;;;8.95;8.55;;;;;;;;;;4995050;28;20392;-67
2023/03/01 04:22:43;;;;;;;9.98;9.48;;;;;;;;;;5014105;28;20030;-67
2023/03/01 04:25:09;;;;;;;9.43;8.95;;;;;;;;;;5018848;28;20022;-67
2023/03/01 04:27:34;;;;;;;10.15;9.60;;;;;;;;;;5013476;28;20165;-66
2023/03/01 04:29:59;;;;;;;10.05;9.55;;;;;;;;;;5010647;28;20025;-66
2023/03/01 04:32:25;;;;;;;9.63;9.13;;;;;;;;;;5013257;28;20017;-66
2023/03/01 04:34:50;;;;;;;9.80;9.30;;;;;;;;;;5003093;28;20029;-66
2023/03/01 04:37:15;;;;;;;10.93;10.23;;;;;;;;;;5005970;28;20026;-67
2023/03/01 04:39:45;;;;;;;10.25;9.65;;;;;;;;;;5009471;28;20040;-65
2023/03/01 04:42:13;;;;;;;9.48;8.98;;;;;;;;;;5010839;28;20037;-66
2023/03/01 04:44:38;;;;;;;11.20;10.50;;;;;;;;;;5011916;28;20026;-66
2023/03/01 04:47:03;;;;;;;9.65;9.15;;;;;;;;;;4990105;28;20018;-67
2023/03/01 04:49:28;;;;;;;9.80;9.30;;;;;;;;;;5007127;28;20053;-66
2023/03/01 04:51:54;;;;;;;9.73;9.23;;;;;;;;;;5012351;28;20042;-66
2023/03/01 04:54:19;;;;;;;10.30;9.70;;;;;;;;;;5015151;28;20100;-66
2023/03/01 04:56:44;;;;;;;9.73;9.23;;;;;;;;;;5008363;28;20037;-66
2023/03/01 04:59:12;;;;;;;10.10;9.57;;;;;;;;;;5006149;28;20491;-64
2023/03/01 05:01:38;;;;;;;10.73;10.13;;;;;;;;;;5008513;28;20025;-64
2023/03/01 05:04:05;;;;;;;10.40;9.80;;;;;;;;;;5002990;28;20034;-66
2023/03/01 05:06:30;;;;;;;10.30;9.70;;;;;;;;;;5007561;28;20030;-65
2023/03/01 05:08:56;;;;;;;9.65;9.15;;;;;;;;;;5013007;28;20064;-67
2023/03/01 05:11:21;;;;;;;9.68;9.18;;;;;;;;;;5007962;28;20037;-66
2023/03/01 05:13:46;;;;;;;9.77;9.27;;;;;;;;;;5006149;28;20026;-67
2023/03/01 05:16:12;;;;;;;10.00;9.48;;;;;;;;;;4991664;28;20121;-65
2023/03/01 05:18:37;;;;;;;11.18;10.48;;;;;;;;;;5007489;28;20544;-66
2023/03/01 05:21:04;;;;;;;10.07;9.50;;;;;;;;;;4989764;28;20030;-67
2023/03/01 05:23:30;;;;;;;9.27;8.77;;;;;;;;;;5007994;28;20396;-66
2023/03/01 05:25:57;;;;;;;9.35;8.85;;;;;;;;;;5017592;28;20018;-65
2023/03/01 05:28:23;;;;;;;9.48;8.98;;;;;;;;;;5003634;28;20077;-66
2023/03/01 05:30:51;;;;;;;9.18;8.68;;;;;;;;;;4994486;28;20068;-66
2023/03/01 05:33:17;;;;;;;8.43;8.02;;;;;;;;;;5012552;28;20516;-66
2023/03/01 05:35:43;;;;;;;9.25;8.75;;;;;;;;;;5010000;28;20161;-64
2023/03/01 05:38:13;;;;;;;8.63;8.23;;;;;;;;;;5012787;28;20128;-66
2023/03/01 05:40:38;;;;;;;9.10;8.60;;;;;;;;;;5012375;28;20026;-66
2023/03/01 05:43:05;;;;;;;9.85;9.35;;;;;;;;;;4991805;28;20146;-66
2023/03/01 05:45:32;;;;;;;9.27;8.77;;;;;;;;;;5007176;28;20389;-65
2023/03/01 05:47:58;;;;;;;9.57;9.07;;;;;;;;;;5011916;28;20018;-66
2023/03/01 05:50:25;;;;;;;9.70;9.20;;;;;;;;;;5010354;28;20010;-66
2023/03/01 05:53:00;;;;;;;10.38;9.88;;;;;;;;;;5009941;28;20014;-67
2023/03/01 05:55:26;;;;;;;9.70;9.20;;;;;;;;;;5010732;28;20026;-67
2023/03/01 05:57:51;;;;;;;9.60;9.10;;;;;;;;;;5011870;28;20029;-67
2023/03/01 06:00:18;;;;;;;10.27;9.77;;;;;;;;;;5011862;28;20076;-67
2023/03/01 06:02:43;;;;;;;9.40;8.93;;;;;;;;;;4996066;28;20500;-67
2023/03/01 06:05:09;;;;;;;9.20;8.80;;;;;;;;;;4992714;28;20117;-67
2023/03/01 06:07:35;;;;;;;9.82;9.32;;;;;;;;;;5008327;28;20030;-66
2023/03/01 06:10:00;;;;;;;9.90;9.40;;;;;;;;;;5010600;28;20014;-66
2023/03/01 06:12:25;;;;;;;9.35;8.95;;;;;;;;;;5011852;28;20097;-67
2023/03/01 06:14:51;;;;;;;9.82;9.32;;;;;;;;;;5012271;28;20022;-66
2023/03/01 06:17:16;;;;;;;10.35;9.85;;;;;;;;;;4998914;28;20406;-67
2023/03/01 06:19:41;;;;;;;10.32;9.82;;;;;;;;;;5011481;28;20021;-67
2023/03/01 06:22:07;;;;;;;9.85;9.43;;;;;;;;;;5006657;28;20025;-67
2023/03/01 06:24:32;;;;;;;11.10;10.60;;;;;;;;;;5011546;28;20033;-67
2023/03/01 06:26:58;;;;;;;9.52;9.13;;;;;;;;;;5011646;28;20046;-66
2023/03/01 06:29:23;;;;;;;10.02;9.57;;;;;;;;;;5011755;28;20018;-67
2023/03/01 06:31:49;;;;;;;9.93;9.50;;;;;;;;;;5011070;28;20030;-67
2023/03/01 06:34:14;;;;;;;9.90;9.50;;;;;;;;;;5011657;28;20032;-67
2023/03/01 06:36:40;;;;;;;10.02;9.52;;;;;;;;;;5011592;28;20136;-67
2023/03/01 06:39:05;;;;;;;10.70;10.20;;;;;;;;;;5001902;28;20519;-67
2023/03/01 06:41:31;;;;;;;10.60;10.10;;;;;;;;;;5007833;28;20105;-67
2023/03/01 06:43:56;;;;;;;11.70;11.10;;;;;;;;;;5006871;28;20076;-67
2023/03/01 06:46:22;;;;;;;11.63;11.02;;;;;;;;;;5001822;28;20496;-68
2023/03/01 06:48:48;;;;;;;11.30;10.70;;;;;;;;;;4999639;28;20037;-67
2023/03/01 06:51:13;;;;;;;12.32;11.68;;;;;;;;;;4999989;28;20444;-65
2023/03/01 06:53:38;;;;;;;11.98;11.30;;;;;;;;;;4997993;28;20021;-67
2023/03/01 06:56:04;;;;;;;11.07;10.50;;;;;;;;;;4999543;28;20030;-69
2023/03/01 06:58:29;;;;;;;10.90;10.32;;;;;;;;;;5002299;28;20030;-71
2023/03/01 07:00:55;;;;;;;11.63;11.02;;;;;;;;;;4992319;28;20037;-66
2023/03/01 07:03:20;;;;;;;11.13;10.52;;;;;;;;;;5016737;28;20467;-65
2023/03/01 07:05:48;;;;;;;10.40;9.90;;;;;;;;;;5015001;28;20048;-67
2023/03/01 07:08:15;;;;;;;11.10;10.50;;;;;;;;;;5019933;28;20045;-68
2023/03/01 07:10:40;;;;;;;11.35;10.75;;;;;;;;;;5011120;28;20036;-66
2023/03/01 07:13:06;;;;;;;9.70;9.23;;;;;;;;;;5014858;28;20117;-66
2023/03/01 07:15:32;;;;;;;10.13;9.63;;;;;;;;;;5017934;28;20010;-66
2023/03/01 07:17:58;;;;;;;10.27;9.77;;;;;;;;;;5007695;28;20030;-65
2023/03/01 07:20:24;;;;;;;10.35;9.85;;;;;;;;;;5018186;28;20033;-65
2023/03/01 07:22:50;;;;;;;10.20;9.70;;;;;;;;;;5019161;28;20025;-65
2023/03/01 07:25:16;;;;;;;11.25;10.65;;;;;;;;;;5013562;28;20460;-65
2023/03/01 07:27:41;;;;;;;11.13;10.52;;;;;;;;;;5011366;28;20435;-64
2023/03/01 07:30:07;;;;;;;11.35;10.75;;;;;;;;;;5011212;28;20568;-68
2023/03/01 07:32:32;;;;;;;11.52;10.93;;;;;;;;;;5017084;28;20402;-69
2023/03/01 07:34:57;;;;;;;11.00;10.40;;;;;;;;;;5013343;28;20025;-68
2023/03/01 07:37:23;;;;;;;12.15;11.45;;;;;;;;;;4999325;28;20020;-68
2023/03/01 07:39:48;;;;;;;10.80;10.25;;;;;;;;;;5002173;28;20499;-69
2023/03/01 07:42:13;;;;;;;10.27;9.77;;;;;;;;;;4997570;28;20030;-69
2023/03/01 07:44:38;;;;;;;10.82;10.23;;;;;;;;;;5010550;28;20076;-68
2023/03/01 07:47:04;;;;;;;11.35;10.75;;;;;;;;;;5017380;28;20044;-68
2023/03/01 07:49:29;;;;;;;10.38;9.88;;;;;;;;;;5006241;28;20100;-68
2023/03/01 07:51:54;;;;;;;10.32;9.82;;;;;;;;;;5012083;28;20033;-69
2023/03/01 07:54:20;;;;;;;11.00;10.40;;;;;;;;;;5002470;28;20018;-71
2023/03/01 07:56:45;;;;;;;11.25;10.65;;;;;;;;;;5006106;28;20034;-70
2023/03/01 07:59:11;;;;;;;12.27;11.57;;;;;;;;;;4994107;28;20018;-70
2023/03/01 08:01:36;;;;;;;10.98;10.38;;;;;;;;;;4995238;28;20032;-70
2023/03/01 08:04:01;;;;;;;11.00;10.40;;;;;;;;;;5002772;28;20064;-69
2023/03/01 08:06:27;;;;;;;11.35;10.75;;;;;;;;;;5006432;28;20034;-67
2023/03/01 08:08:55;;;;;;;10.43;9.93;;;;;;;;;;5012262;28;20026;-68
2023/03/01 08:11:20;;;;;;;10.05;9.55;;;;;;;;;;5018715;28;20197;-67
2023/03/01 08:13:47;;;;;;;10.00;9.50;;;;;;;;;;5009946;28;20127;-67
2023/03/01 08:16:13;;;;;;;11.02;10.52;;;;;;;;;;5021463;28;20057;-68
2023/03/01 08:18:39;;;;;;;10.70;10.20;;;;;;;;;;5014928;28;20022;-67
2023/03/01 08:21:14;;;;;;;10.40;9.90;;;;;;;;;;5002530;28;20048;-68
2023/03/01 08:23:40;;;;;;;11.15;10.65;;;;;;;;;;5022412;28;20033;-67
2023/03/01 08:26:16;;;;;;;11.20;10.70;;;;;;;;;;5013946;28;20025;-66
2023/03/01 08:28:42;;;;;;;11.20;10.70;;;;;;;;;;5010145;28;20104;-66
2023/03/01 08:31:15;;;;;;;12.38;11.77;;;;;;;;;;5022426;28;20025;-68
2023/03/01 08:33:40;;;;;;;11.30;10.80;;;;;;;;;;5016279;28;20017;-68
2023/03/01 08:36:06;;;;;;;10.85;10.35;;;;;;;;;;5007163;28;20445;-70
2023/03/01 08:38:32;;;;;;;11.15;10.65;;;;;;;;;;5008685;28;20033;-70
2023/03/01 08:40:59;;;;;;;9.75;9.35;;;;;;;;;;4995077;28;20026;-69
2023/03/01 08:43:24;;;;;;;10.85;10.35;;;;;;;;;;5009455;28;20107;-71
2023/03/01 08:45:50;;;;;;;11.38;10.88;;;;;;;;;;5008177;28;20034;-67
2023/03/01 08:48:15;;;;;;;12.00;11.40;;;;;;;;;;5004142;28;20026;-68
2023/03/01 08:50:41;;;;;;;12.63;12.02;;;;;;;;;;4987073;28;20030;-67
2023/03/01 08:53:06;;;;;;;11.95;11.35;;;;;;;;;;5005675;28;20032;-67
2023/03/01 08:55:31;;;;;;;10.95;10.45;;;;;;;;;;5010703;28;20038;-71
2023/03/01 08:57:59;;;;;;;10.65;10.15;;;;;;;;;;5013718;28;20033;-69
2023/03/01 09:00:24;;;;;;;11.02;10.52;;;;;;;;;;5008164;28;20042;-68
2023/03/01 09:02:50;;;;;;;10.90;10.40;;;;;;;;;;5013000;28;20076;-68
2023/03/01 09:05:15;;;;;;;10.80;10.30;;;;;;;;;;5012285;28;20824;-70
2023/03/01 09:07:40;;;;;;;10.45;9.95;;;;;;;;;;5010615;28;20527;-69
2023/03/01 09:10:06;;;;;;;11.25;10.75;;;;;;;;;;5011044;28;20014;-67
2023/03/01 09:12:31;;;;;;;10.70;10.20;;;;;;;;;;5008456;28;20029;-71
2023/03/01 09:14:56;;;;;;;11.23;10.73;;;;;;;;;;5010371;28;20025;-69
2023/03/01 09:17:22;;;;;;;10.82;10.32;;;;;;;;;;4997770;28;20105;-71
2023/03/01 09:19:47;;;;;;;10.65;10.15;;;;;;;;;;5015592;28;20313;-71
2023/03/01 09:22:12;;;;;;;10.65;10.15;;;;;;;;;;5019479;28;20480;-69
2023/03/01 09:24:37;;;;;;;11.05;10.55;;;;;;;;;;5015884;28;20053;-68
2023/03/01 09:27:03;;;;;;;11.95;11.35;;;;;;;;;;5010267;28;20041;-70
2023/03/01 09:29:28;;;;;;;11.07;10.57;;;;;;;;;;4988997;28;20029;-68
2023/03/01 09:31:54;;;;;;;10.73;10.23;;;;;;;;;;5009072;28;20306;-69
2023/03/01 09:34:22;;;;;;;11.13;10.63;;;;;;;;;;4994388;28;20026;-68
2023/03/01 09:36:48;;;;;;;10.85;10.35;;;;;;;;;;5008665;28;20405;-68
2023/03/01 09:39:13;;;;;;;11.15;10.65;;;;;;;;;;5014536;28;20021;-68
2023/03/01 09:42:05;;;;;;;10.85;10.35;;;;;;;;;;5012091;28;20033;-71
2023/03/01 09:44:49;;;;;;;11.20;10.70;;;;;;;;;;5004410;28;20038;-71
2023/03/01 09:47:24;;;;;;;11.73;11.13;;;;;;;;;;5003806;28;20025;-71
2023/03/01 09:50:10;;;;;;;11.15;10.65;;;;;;;;;;5004800;28;20032;-70
2023/03/01 09:52:35;;;;;;;12.00;11.40;;;;;;;;;;5005259;28;20062;-67
2023/03/01 09:55:01;;;;;;;11.43;10.85;;;;;;;;;;5017603;28;20160;-66
2023/03/01 09:57:26;;;;;;;12.15;11.52;;;;;;;;;;5022785;28;20484;-66
2023/03/01 09:59:57;;;;;;;11.98;11.38;;;;;;;;;;5013234;28;20045;-68
2023/03/01 10:02:25;;;;;;;12.13;11.50;;;;;;;;;;4987152;28;20032;-69
2023/03/01 10:04:53;;;;;;;11.02;10.48;;;;;;;;;;5006663;28;20052;-68
2023/03/01 10:07:28;;;;;;;11.50;10.90;;;;;;;;;;5009247;28;20024;-66
2023/03/01 10:09:53;;;;;;;12.63;11.93;;;;;;;;;;5007851;28;20034;-65
2023/03/01 10:12:20;;;;;;;12.15;11.45;;;;;;;;;;5007927;28;20028;-65
2023/03/01 10:14:49;;;;;;;12.68;11.98;;;;;;;;;;5006074;28;20036;-67
2023/03/01 10:17:26;;;;;;;12.52;11.82;;;;;;;;;;5006186;28;20037;-66
2023/03/01 10:19:51;;;;;;;11.27;10.68;;;;;;;;;;4997262;28;20041;-67
2023/03/01 10:22:22;;;;;;;11.90;11.20;;;;;;;;;;5003666;28;21861;-67
2023/03/01 10:24:48;;;;;;;12.20;11.50;;;;;;;;;;5011596;28;20045;-70
2023/03/01 10:27:24;;;;;;;11.05;10.45;;;;;;;;;;4988684;28;20619;-66
2023/03/01 10:29:53;;;;;;;11.82;11.13;;;;;;;;;;5003686;28;20603;-67
2023/03/01 10:32:18;;;;;;;11.05;10.45;;;;;;;;;;5002285;28;20377;-65
2023/03/01 10:34:43;;;;;;;11.18;10.57;;;;;;;;;;5001148;28;20026;-65
2023/03/01 10:37:11;;;;;;;11.10;10.50;;;;;;;;;;5022104;28;20037;-64
2023/03/01 10:39:53;;;;;;;11.02;10.43;;;;;;;;;;5014786;28;20018;-65
2023/03/01 10:42:22;;;;;;;10.70;10.10;;;;;;;;;;5009098;28;20025;-65
2023/03/01 10:44:48;;;;;;;10.93;10.32;;;;;;;;;;5013096;28;20029;-67
2023/03/01 10:47:24;;;;;;;10.75;10.15;;;;;;;;;;5010041;28;20028;-68
2023/03/01 10:49:52;;;;;;;10.60;10.00;;;;;;;;;;5008512;28;20500;-68
2023/03/01 10:52:19;;;;;;;11.88;11.18;;;;;;;;;;5011029;28;20041;-67
2023/03/01 10:54:51;;;;;;;10.68;10.07;;;;;;;;;;5001323;28;20047;-66
2023/03/01 10:57:31;;;;;;;10.15;9.65;;;;;;;;;;5004896;28;20562;-65
2023/03/01 11:00:22;;;;;;;10.32;9.80;;;;;;;;;;5000396;28;20392;-67
2023/03/01 11:03:01;;;;;;;10.57;9.98;;;;;;;;;;5002902;28;20691;-66
2023/03/01 11:05:29;;;;;;;10.07;9.57;;;;;;;;;;5004221;28;20026;-67
2023/03/01 11:07:56;;;;;;;10.57;9.98;;;;;;;;;;5008732;28;20033;-64
2023/03/01 11:10:31;;;;;;;11.52;10.82;;;;;;;;;;4999414;28;20485;-66
2023/03/01 11:13:14;;;;;;;11.57;10.88;;;;;;;;;;5006124;28;20080;-66
2023/03/01 11:15:41;;;;;;;12.23;11.45;;;;;;;;;;5003400;28;20501;-66
2023/03/01 11:18:18;;;;;;;10.63;10.02;;;;;;;;;;5005312;28;20041;-66
2023/03/01 11:20:44;;;;;;;10.93;10.32;;;;;;;;;;5008578;28;20469;-68
2023/03/01 11:23:10;;;;;;;10.52;9.93;;;;;;;;;;4988910;28;20038;-68
2023/03/01 11:25:37;;;;;;;11.93;11.20;;;;;;;;;;5007397;28;20113;-70
2023/03/01 11:28:04;;;;;;;11.05;10.45;;;;;;;;;;5005697;28;20046;-68
2023/03/01 11:30:32;;;;;;;10.60;10.00;;;;;;;;;;5009733;28;20026;-65
2023/03/01 11:33:16;;;;;;;10.93;10.32;;;;;;;;;;5001293;28;20382;-68
2023/03/01 11:35:49;;;;;;;13.70;12.75;;;;;;;;;;5002713;28;20524;-64
2023/03/01 11:38:24;;;;;;;12.07;11.30;;;;;;;;;;5003276;28;20033;-64
2023/03/01 11:40:53;;;;;;;12.30;11.50;;;;;;;;;;5003024;28;20369;-65
2023/03/01 11:43:27;;;;;;;13.13;12.25;;;;;;;;;;5001586;28;20096;-65
2023/03/01 11:45:59;;;;;;;12.60;11.80;;;;;;;;;;5003806;28;20021;-65
2023/03/01 11:48:39;;;;;;;12.77;11.95;;;;;;;;;;5006091;28;20040;-65
2023/03/01 11:51:23;;;;;;;13.15;12.25;;;;;;;;;;5001062;28;20053;-64
2023/03/01 11:53:48;;;;;;;13.93;12.93;;;;;;;;;;5001669;28;20574;-63
2023/03/01 11:56:22;;;;;;;12.23;11.43;;;;;;;;;;4997409;28;20041;-69
2023/03/01 11:58:57;;;;;;;12.20;11.40;;;;;;;;;;5016116;28;20034;-67
2023/03/01 12:01:23;;;;;;;12.77;11.95;;;;;;;;;;5009856;28;20381;-67
2023/03/01 12:03:51;;;;;;;12.70;11.88;;;;;;;;;;5008136;28;20036;-68
2023/03/01 12:06:28;;;;;;;12.27;11.48;;;;;;;;;;5007168;28;20068;-65
2023/03/01 12:09:04;;;;;;;12.13;11.32;;;;;;;;;;5014627;28;20029;-65
2023/03/01 12:11:41;;;;;;;11.50;10.80;;;;;;;;;;5004049;28;20152;-66
2023/03/01 12:14:09;;;;;;;11.85;11.15;;;;;;;;;;4998079;28;20036;-65
2023/03/01 12:16:53;;;;;;;11.52;10.82;;;;;;;;;;5005690;28;20091;-66
2023/03/01 12:19:18;;;;;;;11.27;10.57;;;;;;;;;;4998246;28;20094;-67
2023/03/01 12:22:02;;;;;;;11.30;10.60;;;;;;;;;;5012264;28;20404;-68
2023/03/01 12:24:46;;;;;;;11.18;10.50;;;;;;;;;;5016986;28;20079;-66
2023/03/01 12:27:11;;;;;;;10.20;9.60;;;;;;;;;;5009237;28;20455;-66
2023/03/01 12:29:43;;;;;;;11.00;10.35;;;;;;;;;;5015119;28;20014;-67
2023/03/01 12:32:11;;;;;;;12.43;11.63;;;;;;;;;;5002654;28;20159;-67
2023/03/01 12:34:49;;;;;;;11.10;10.40;;;;;;;;;;5002489;28;20121;-65
2023/03/01 12:37:33;;;;;;;11.00;10.32;;;;;;;;;;5001205;28;20475;-63
2023/03/01 12:39:59;;;;;;;9.38;8.88;;;;;;;;;;5005494;28;20025;-67
2023/03/01 12:42:47;;;;;;;11.20;10.50;;;;;;;;;;5013964;28;20030;-66
2023/03/01 12:45:12;;;;;;;9.07;8.68;;;;;;;;;;5009600;28;20048;-66
2023/03/01 12:47:58;;;;;;;12.05;11.30;;;;;;;;;;5012254;28;20010;-67
2023/03/01 12:50:25;;;;;;;11.13;10.43;;;;;;;;;;5012660;28;20018;-66
2023/03/01 12:52:57;;;;;;;10.45;9.85;;;;;;;;;;5019227;28;20025;-67
2023/03/01 12:55:25;;;;;;;10.63;10.02;;;;;;;;;;5017565;28;20368;-65
2023/03/01 12:58:00;;;;;;;11.45;10.75;;;;;;;;;;5009922;28;20025;-65
2023/03/01 13:00:36;;;;;;;10.52;9.93;;;;;;;;;;5014004;28;20493;-65
2023/03/01 13:03:11;;;;;;;12.15;11.35;;;;;;;;;;5011982;28;20539;-66
2023/03/01 13:05:47;;;;;;;11.48;10.77;;;;;;;;;;4998488;28;20025;-65
2023/03/01 13:08:39;;;;;;;12.18;11.38;;;;;;;;;;5002527;28;20022;-65
2023/03/01 13:11:19;;;;;;;12.63;11.80;;;;;;;;;;4996787;28;20037;-65
2023/03/01 13:13:46;;;;;;;11.65;10.95;;;;;;;;;;5001592;28;20086;-65
2023/03/01 13:16:42;;;;;;;10.68;10.07;;;;;;;;;;4999286;28;20400;-65
2023/03/01 13:19:18;;;;;;;11.75;11.05;;;;;;;;;;4997052;28;20069;-63
2023/03/01 13:21:44;;;;;;;11.55;10.85;;;;;;;;;;5018052;28;20112;-64
2023/03/01 13:24:25;;;;;;;10.38;9.77;;;;;;;;;;4999802;28;20381;-66
2023/03/01 13:27:06;;;;;;;10.50;9.90;;;;;;;;;;5011263;28;20036;-65
2023/03/01 13:29:43;;;;;;;11.73;11.02;;;;;;;;;;5008822;28;20026;-65
2023/03/01 13:32:18;;;;;;;10.57;9.98;;;;;;;;;;5019530;28;20041;-66
2023/03/01 13:34:45;;;;;;;11.38;10.68;;;;;;;;;;5014581;28;20026;-64
2023/03/01 13:37:18;;;;;;;10.45;9.85;;;;;;;;;;5005123;28;20028;-64
2023/03/01 13:39:43;;;;;;;11.90;11.15;;;;;;;;;;5015884;28;20104;-65
2023/03/01 13:42:27;;;;;;;10.73;10.13;;;;;;;;;;5016320;28;20399;-65
2023/03/01 13:44:52;;;;;;;12.77;11.90;;;;;;;;;;5008299;28;20113;-65
2023/03/01 13:47:17;;;;;;;11.80;11.10;;;;;;;;;;5016661;28;20013;-65
2023/03/01 13:49:47;;;;;;;11.02;10.40;;;;;;;;;;5007998;28;20489;-66
2023/03/01 13:52:31;;;;;;;11.57;10.88;;;;;;;;;;5018853;28;20033;-64
2023/03/01 13:54:57;;;;;;;10.48;9.88;;;;;;;;;;5016778;28;20393;-68
2023/03/01 13:57:25;;;;;;;11.13;10.43;;;;;;;;;;5009389;28;20029;-64
2023/03/01 13:59:50;;;;;;;12.05;11.30;;;;;;;;;;5016863;28;20108;-66
2023/03/01 14:02:16;;;;;;;11.95;11.23;;;;;;;;;;5014212;28;20110;-65
2023/03/01 14:04:41;;;;;;;11.93;11.20;;;;;;;;;;5011534;28;20029;-65
2023/03/01 14:07:09;;;;;;;11.50;10.80;;;;;;;;;;4998839;28;20465;-64
2023/03/01 14:09:37;;;;;;;11.57;10.88;;;;;;;;;;5013714;28;20025;-65
2023/03/01 14:12:11;;;;;;;11.88;11.13;;;;;;;;;;5017615;28;20045;-64
2023/03/01 14:14:43;;;;;;;12.00;11.23;;;;;;;;;;5000864;28;20480;-69
2023/03/01 14:17:23;;;;;;;10.57;9.98;;;;;;;;;;5012465;28;20488;-65
2023/03/01 14:19:57;;;;;;;10.68;10.07;;;;;;;;;;5001542;28;20026;-65
2023/03/01 14:22:35;;;;;;;13.65;12.75;;;;;;;;;;4990494;28;20037;-67
2023/03/01 14:25:03;;;;;;;9.98;9.48;;;;;;;;;;5004647;28;20038;-67
2023/03/01 14:27:31;;;;;;;11.57;10.88;;;;;;;;;;4992904;28;20046;-66
2023/03/01 14:30:00;;;;;;;13.02;12.13;;;;;;;;;;5003859;28;20485;-67
2023/03/01 14:32:29;;;;;;;10.85;10.25;;;;;;;;;;5004204;28;20038;-67
2023/03/01 14:34:55;;;;;;;11.35;10.65;;;;;;;;;;5002426;28;20536;-68
2023/03/01 14:37:39;;;;;;;11.18;10.50;;;;;;;;;;5005121;28;20033;-66